createdAt,value
2023-01-05T00:01:59.919Z,3.90
2023-01-05T00:04:30.616Z,3.60
2023-01-05T00:07:01.624Z,2.80
2023-01-05T00:09:32.275Z,3.20
2023-01-05T00:12:20.267Z,4.20
2023-01-05T00:15:08.749Z,2.90
2023-01-05T00:17:56.778Z,3.20
2023-01-05T00:20:47.528Z,3.40
2023-01-05T00:23:18.521Z,2.70
2023-01-05T00:25:49.459Z,3.40
2023-01-05T00:28:20.192Z,3.00
2023-01-05T00:30:51.027Z,3.10
2023-01-05T00:33:21.763Z,4.40
2023-01-05T00:35:52.941Z,2.50
2023-01-05T00:38:23.755Z,3.20
2023-01-05T00:40:55.719Z,2.80
2023-01-05T00:43:26.641Z,2.80
2023-01-05T00:45:57.584Z,3.90
2023-01-05T00:48:28.206Z,4.50
2023-01-05T00:50:58.941Z,3.80
2023-01-05T00:53:29.781Z,3.60
2023-01-05T00:56:00.990Z,3.70
2023-01-05T00:58:32.073Z,4.00
2023-01-05T01:01:03.460Z,3.60
2023-01-05T01:03:34.309Z,3.80
2023-01-05T01:06:05.685Z,2.80
2023-01-05T01:08:36.660Z,3.20
2023-01-05T01:11:09.330Z,3.10
2023-01-05T01:13:40.182Z,4.50
2023-01-05T01:16:11.880Z,3.20
2023-01-05T01:18:44.277Z,4.10
2023-01-05T01:21:14.903Z,3.00
2023-01-05T01:23:45.803Z,3.20
2023-01-05T01:26:16.580Z,3.10
2023-01-05T01:28:50.013Z,3.00
2023-01-05T01:31:21.386Z,3.70
2023-01-05T01:33:52.252Z,3.00
2023-01-05T01:36:23.092Z,2.90
2023-01-05T01:38:54.202Z,2.60
2023-01-05T01:41:24.972Z,3.30
2023-01-05T01:43:56.516Z,4.30
2023-01-05T01:46:29.428Z,3.30
2023-01-05T01:49:02.507Z,3.80
2023-01-05T01:51:34.559Z,3.20
2023-01-05T01:54:08.171Z,2.90
2023-01-05T01:56:40.893Z,3.80
2023-01-05T01:59:12.004Z,2.60
2023-01-05T02:01:42.828Z,3.10
2023-01-05T02:04:13.929Z,3.30
2023-01-05T02:06:44.881Z,4.20
2023-01-05T02:09:16.035Z,3.40
2023-01-05T02:11:52.176Z,3.00
2023-01-05T02:14:27.769Z,3.90
2023-01-05T02:17:06.258Z,3.60
2023-01-05T02:19:53.452Z,3.70
2023-01-05T02:22:53.766Z,3.80
2023-01-05T02:25:33.679Z,2.80
2023-01-05T02:28:11.412Z,3.70
2023-01-05T02:30:54.800Z,4.80
2023-01-05T02:33:29.567Z,3.20
2023-01-05T02:36:03.644Z,3.10
2023-01-05T02:38:39.374Z,2.60
2023-01-05T02:41:13.316Z,3.00
2023-01-05T02:43:46.418Z,3.30
2023-01-05T02:46:17.502Z,3.00
2023-01-05T02:48:49.903Z,2.90
2023-01-05T02:51:24.831Z,2.50
2023-01-05T02:54:00.913Z,3.20
2023-01-05T02:56:33.236Z,3.70
2023-01-05T02:59:06.648Z,3.00
2023-01-05T03:01:39.298Z,2.70
2023-01-05T03:04:13.506Z,3.30
2023-01-05T03:06:48.228Z,2.60
2023-01-05T03:09:26.027Z,4.00
2023-01-05T03:12:17.681Z,2.80
2023-01-05T03:14:49.493Z,3.60
2023-01-05T03:17:23.757Z,3.30
2023-01-05T03:19:55.304Z,2.70
2023-01-05T03:22:46.319Z,2.90
2023-01-05T03:25:36.705Z,2.70
2023-01-05T03:28:27.384Z,3.20
2023-01-05T03:31:17.300Z,3.30
2023-01-05T03:34:10.045Z,3.20
2023-01-05T03:36:45.995Z,3.10
2023-01-05T03:39:17.668Z,2.80
2023-01-05T03:41:50.289Z,2.40
2023-01-05T03:44:23.088Z,2.10
2023-01-05T03:46:54.172Z,3.20
2023-01-05T03:49:25.128Z,2.40
2023-01-05T03:51:56.122Z,2.80
2023-01-05T03:54:27.475Z,2.60
2023-01-05T03:56:58.004Z,2.70
2023-01-05T03:59:29.044Z,5.10
2023-01-05T04:02:02.684Z,2.70
2023-01-05T04:04:33.604Z,2.80
2023-01-05T04:07:04.924Z,3.40
2023-01-05T04:09:37.361Z,3.10
2023-01-05T04:12:08.846Z,4.10
2023-01-05T04:14:42.869Z,2.70
2023-01-05T04:17:13.499Z,4.80
2023-01-05T04:19:44.936Z,2.70
2023-01-05T04:22:18.097Z,5.70
2023-01-05T04:24:51.130Z,3.10
2023-01-05T04:27:22.184Z,2.50
2023-01-05T04:29:53.749Z,3.10
2023-01-05T04:32:24.747Z,3.00
2023-01-05T04:34:56.144Z,3.40
2023-01-05T04:37:27.237Z,3.30
2023-01-05T04:39:58.737Z,3.70
2023-01-05T04:42:29.635Z,3.10
2023-01-05T04:45:00.764Z,2.80
2023-01-05T04:47:31.274Z,2.70
2023-01-05T04:50:03.465Z,2.50
2023-01-05T04:52:33.929Z,3.50
2023-01-05T04:55:06.706Z,2.90
2023-01-05T04:57:37.652Z,3.30
2023-01-05T05:00:11.447Z,3.00
2023-01-05T05:06:35.842Z,3.00
2023-01-05T05:09:06.924Z,3.30
2023-01-05T05:11:39.553Z,3.00
2023-01-05T05:14:11.476Z,3.00
2023-01-05T05:16:42.773Z,3.90
2023-01-05T05:19:13.529Z,2.90
2023-01-05T05:21:44.788Z,3.80
2023-01-05T05:24:15.769Z,3.90
2023-01-05T05:26:48.132Z,2.70
2023-01-05T05:29:18.985Z,2.40
2023-01-05T05:31:49.785Z,4.40
2023-01-05T05:34:20.337Z,2.30
2023-01-05T05:36:51.124Z,2.40
2023-01-05T05:39:21.638Z,2.90
2023-01-05T05:41:52.745Z,3.50
2023-01-05T05:44:23.281Z,4.60
2023-01-05T05:46:54.206Z,3.00
2023-01-05T05:49:24.673Z,3.20
2023-01-05T05:51:55.301Z,2.90
2023-01-05T05:54:25.700Z,3.40
2023-01-05T05:56:56.850Z,3.60
2023-01-05T05:59:27.329Z,3.60
2023-01-05T06:01:58.465Z,4.20
2023-01-05T06:04:29.094Z,3.40
2023-01-05T06:06:59.971Z,3.40
2023-01-05T06:09:30.464Z,3.20
2023-01-05T06:12:01.337Z,3.70
2023-01-05T06:14:31.934Z,4.20
2023-01-05T06:17:03.017Z,4.30
2023-01-05T06:19:33.529Z,4.80
2023-01-05T06:22:04.308Z,3.90
2023-01-05T06:24:34.700Z,6.00
2023-01-05T06:27:05.629Z,4.40
2023-01-05T06:29:36.300Z,4.00
2023-01-05T06:32:07.437Z,5.20
2023-01-05T06:34:37.840Z,4.80
2023-01-05T06:37:08.792Z,4.30
2023-01-05T06:39:39.246Z,4.10
2023-01-05T06:42:10.612Z,4.60
2023-01-05T06:44:42.689Z,4.10
2023-01-05T06:47:13.578Z,5.50
2023-01-05T06:49:44.032Z,5.40
2023-01-05T06:52:16.802Z,4.50
2023-01-05T06:54:47.504Z,4.70
2023-01-05T06:57:18.618Z,3.10
2023-01-05T06:59:49.054Z,6.00
2023-01-05T07:02:20.046Z,3.80
2023-01-05T07:04:50.620Z,3.70
2023-01-05T07:07:21.330Z,3.80
2023-01-05T07:09:51.892Z,6.50
2023-01-05T07:12:23.049Z,4.20
2023-01-05T07:14:57.442Z,4.80
2023-01-05T07:17:28.651Z,5.20
2023-01-05T07:19:59.118Z,4.90
2023-01-05T07:22:31.174Z,5.30
2023-01-05T07:25:01.652Z,5.80
2023-01-05T07:27:33.151Z,2.90
2023-01-05T07:30:04.243Z,4.60
2023-01-05T07:32:35.050Z,6.00
2023-01-05T07:35:06.048Z,3.10
2023-01-05T07:37:36.807Z,3.40
2023-01-05T07:40:08.545Z,3.20
2023-01-05T07:42:39.320Z,2.00
2023-01-05T07:45:13.404Z,3.10
2023-01-05T07:47:44.395Z,5.40
2023-01-05T07:50:15.091Z,3.70
2023-01-05T07:52:45.977Z,4.80
2023-01-05T07:55:16.598Z,3.80
2023-01-05T07:57:47.707Z,3.80
2023-01-05T08:00:18.612Z,4.10
2023-01-05T08:02:49.288Z,5.50
2023-01-05T08:05:20.802Z,3.30
2023-01-05T08:07:51.546Z,4.70
2023-01-05T08:10:31.153Z,4.00
2023-01-05T08:13:23.462Z,5.00
2023-01-05T08:15:54.501Z,3.70
2023-01-05T08:18:25.579Z,5.70
2023-01-05T08:20:57.121Z,5.70
2023-01-05T08:23:29.131Z,6.10
2023-01-05T08:26:04.248Z,4.20
2023-01-05T08:28:36.197Z,4.70
2023-01-05T08:31:08.244Z,4.10
2023-01-05T08:33:38.932Z,4.60
2023-01-05T08:36:11.461Z,6.60
2023-01-05T08:38:48.729Z,4.50
2023-01-05T08:41:21.970Z,3.20
2023-01-05T08:43:52.926Z,4.40
2023-01-05T08:46:24.871Z,4.70
2023-01-05T08:48:56.932Z,4.40
2023-01-05T08:51:27.876Z,5.20
2023-01-05T08:53:59.042Z,6.50
2023-01-05T08:56:34.667Z,4.70
2023-01-05T08:59:10.250Z,8.00
2023-01-05T09:01:40.801Z,5.20
2023-01-05T09:04:11.958Z,3.80
2023-01-05T09:06:42.633Z,5.20
2023-01-05T09:09:13.476Z,6.00
2023-01-05T09:11:43.974Z,6.20
2023-01-05T09:14:16.107Z,4.70
2023-01-05T09:17:06.508Z,6.10
2023-01-05T09:19:37.646Z,5.10
2023-01-05T09:22:08.320Z,6.40
2023-01-05T09:24:39.424Z,5.30
2023-01-05T09:27:09.978Z,7.60
2023-01-05T09:29:40.917Z,6.00
2023-01-05T09:32:11.698Z,6.50
2023-01-05T09:34:42.882Z,5.50
2023-01-05T09:37:13.323Z,5.70
2023-01-05T09:39:44.648Z,5.70
2023-01-05T09:42:17.403Z,5.20
2023-01-05T09:44:54.059Z,5.70
2023-01-05T09:47:31.978Z,7.40
2023-01-05T09:52:37.801Z,7.20
2023-01-05T09:55:15.598Z,7.20
2023-01-05T09:57:54.727Z,6.10
2023-01-05T10:00:26.813Z,7.90
2023-01-05T10:02:59.014Z,6.50
2023-01-05T10:05:30.305Z,8.30
2023-01-05T10:08:02.771Z,7.50
2023-01-05T10:10:42.917Z,6.30
2023-01-05T10:13:23.039Z,6.40
2023-01-05T10:15:54.876Z,7.10
2023-01-05T10:18:27.300Z,6.30
2023-01-05T10:21:02.989Z,6.70
2023-01-05T10:23:42.091Z,7.70
2023-01-05T10:26:16.149Z,5.60
2023-01-05T10:28:51.842Z,9.30
2023-01-05T10:31:26.501Z,6.60
2023-01-05T10:34:05.415Z,7.50
2023-01-05T10:39:56.807Z,8.00
2023-01-05T10:42:33.657Z,7.00
2023-01-05T10:45:04.923Z,6.40
2023-01-05T10:47:37.833Z,6.30
2023-01-05T10:50:19.327Z,6.40
2023-01-05T10:52:50.509Z,5.10
2023-01-05T10:55:21.684Z,6.70
2023-01-05T10:57:52.448Z,6.00
2023-01-05T11:00:40.139Z,5.40
2023-01-05T11:03:14.615Z,5.30
2023-01-05T11:05:47.008Z,8.70
2023-01-05T11:08:19.045Z,8.00
2023-01-05T11:10:54.122Z,7.00
2023-01-05T11:13:29.346Z,8.00
2023-01-05T11:16:01.121Z,9.90
2023-01-05T11:18:35.446Z,8.20
2023-01-05T11:21:22.438Z,8.00
2023-01-05T11:23:53.770Z,9.10
2023-01-05T11:26:34.949Z,7.70
2023-01-05T11:29:13.439Z,7.60
2023-01-05T11:31:54.675Z,9.40
2023-01-05T11:34:37.956Z,8.50
2023-01-05T11:37:14.783Z,10.40
2023-01-05T11:39:50.694Z,8.90
2023-01-05T11:42:25.628Z,10.50
2023-01-05T11:44:58.621Z,9.60
2023-01-05T11:47:30.818Z,8.00
2023-01-05T11:50:09.739Z,7.30
2023-01-05T11:52:41.508Z,9.80
2023-01-05T11:55:35.666Z,8.60
2023-01-05T11:58:22.916Z,7.40
2023-01-05T12:01:03.429Z,7.30
2023-01-05T12:04:01.340Z,8.90
2023-01-05T12:06:52.136Z,8.20
2023-01-05T12:09:29.778Z,8.80
2023-01-05T12:12:18.371Z,9.60
2023-01-05T12:15:01.279Z,7.40
2023-01-05T12:17:35.575Z,7.20
2023-01-05T12:20:28.830Z,9.00
2023-01-05T12:23:14.432Z,9.20
2023-01-05T12:40:30.110Z,7.60
2023-01-05T12:43:02.223Z,8.60
2023-01-05T12:45:39.274Z,6.80
2023-01-05T12:48:12.273Z,8.20
2023-01-05T12:50:45.086Z,8.70
2023-01-05T12:53:18.319Z,7.80
2023-01-05T12:55:51.523Z,5.90
2023-01-05T12:58:25.064Z,6.90
2023-01-05T13:00:57.957Z,6.70
2023-01-05T13:03:32.077Z,6.80
2023-01-05T13:06:06.516Z,7.10
2023-01-05T13:08:39.920Z,9.80
2023-01-05T13:13:41.277Z,8.00
2023-01-05T13:16:14.175Z,8.50
2023-01-05T13:18:48.950Z,8.00
2023-01-05T13:21:20.548Z,7.20
2023-01-05T13:23:52.824Z,9.60
2023-01-05T13:26:23.892Z,11.60
2023-01-05T13:28:55.634Z,7.80
2023-01-05T13:31:43.938Z,8.60
2023-01-05T13:34:20.245Z,9.20
2023-01-05T13:37:04.435Z,9.20
2023-01-05T13:39:43.992Z,9.70
2023-01-05T13:42:27.249Z,8.10
2023-01-05T13:45:13.901Z,7.70
2023-01-05T13:47:53.850Z,6.50
2023-01-05T13:50:43.044Z,4.10
2023-01-05T13:53:16.044Z,5.20
2023-01-05T13:55:49.465Z,5.60
2023-01-05T14:00:52.254Z,5.60
2023-01-05T14:05:53.075Z,4.70
2023-01-05T14:08:27.169Z,3.90
2023-01-05T14:11:12.090Z,7.00
2023-01-05T14:13:47.926Z,5.80
2023-01-05T14:16:35.739Z,2.90
2023-01-05T14:19:14.768Z,3.00
2023-01-05T14:22:02.577Z,2.60
2023-01-05T14:24:36.757Z,3.20
2023-01-05T14:27:09.518Z,3.70
2023-01-05T14:30:08.874Z,3.30
2023-01-05T14:32:40.323Z,2.80
2023-01-05T14:35:23.075Z,3.10
2023-01-05T14:37:54.727Z,3.00
2023-01-05T14:40:32.867Z,4.00
2023-01-05T14:43:05.539Z,3.70
2023-01-05T14:45:38.408Z,2.30
2023-01-05T14:48:28.036Z,3.10
2023-01-05T14:51:15.016Z,3.30
2023-01-05T14:53:46.293Z,2.90
2023-01-05T14:56:18.045Z,3.30
2023-01-05T14:59:11.310Z,3.50
2023-01-05T15:01:47.145Z,3.70
2023-01-05T15:04:20.065Z,4.90
2023-01-05T15:07:01.786Z,3.90
2023-01-05T15:09:59.300Z,4.70
2023-01-05T15:12:50.828Z,4.60
2023-01-05T15:15:41.960Z,5.60
2023-01-05T15:21:13.724Z,5.00
2023-01-05T15:24:02.616Z,5.90
2023-01-05T15:26:42.374Z,6.30
2023-01-05T15:29:35.407Z,6.40
2023-01-05T15:32:08.453Z,5.10
2023-01-05T15:34:42.136Z,7.60
2023-01-05T15:37:15.481Z,8.30
2023-01-05T15:39:49.909Z,5.70
2023-01-05T15:42:23.340Z,9.50
2023-01-05T15:44:55.778Z,7.80
2023-01-05T15:47:28.857Z,6.10
2023-01-05T15:50:01.125Z,6.60
2023-01-05T15:52:33.542Z,6.80
2023-01-05T15:55:06.006Z,8.10
2023-01-05T15:57:36.670Z,5.90
2023-01-05T16:00:18.161Z,9.70
2023-01-05T16:02:48.628Z,11.00
2023-01-05T16:05:20.061Z,7.30
2023-01-05T16:07:53.345Z,8.70
2023-01-05T16:10:27.235Z,13.20
2023-01-05T16:13:00.227Z,10.60
2023-01-05T16:15:32.441Z,9.00
2023-01-05T16:18:03.838Z,7.70
2023-01-05T16:20:35.552Z,7.10
2023-01-05T16:23:09.165Z,10.30
2023-01-05T16:25:41.440Z,7.40
2023-01-05T16:28:17.151Z,7.90
2023-01-05T16:30:48.463Z,7.00
2023-01-05T16:33:30.509Z,7.60
2023-01-05T16:36:13.443Z,9.50
2023-01-05T16:38:44.110Z,7.50
2023-01-05T16:41:22.950Z,8.00
2023-01-05T16:43:55.339Z,7.40
2023-01-05T16:46:31.175Z,7.40
2023-01-05T16:49:05.057Z,7.90
2023-01-05T16:51:40.049Z,9.60
2023-01-05T16:54:14.993Z,8.60
2023-01-05T16:56:58.519Z,7.80
2023-01-05T17:01:58.515Z,6.60
2023-01-05T17:04:29.515Z,5.80
2023-01-05T17:07:01.569Z,6.10
2023-01-05T17:09:33.655Z,5.00
2023-01-05T17:12:05.471Z,7.00
2023-01-05T17:14:36.472Z,4.80
2023-01-05T17:17:07.408Z,6.10
2023-01-05T17:19:38.236Z,5.10
2023-01-05T17:22:11.692Z,5.40
2023-01-05T17:24:43.417Z,6.40
2023-01-05T17:27:14.289Z,7.30
2023-01-05T17:29:44.995Z,6.40
2023-01-05T17:32:15.814Z,8.00
2023-01-05T17:34:46.723Z,7.10
2023-01-05T17:37:17.998Z,8.30
2023-01-05T17:39:48.714Z,8.10
2023-01-05T17:42:36.971Z,7.10
2023-01-05T17:45:08.572Z,6.20
2023-01-05T17:47:39.693Z,8.00
2023-01-05T17:50:13.195Z,8.50
2023-01-05T17:52:43.980Z,7.60
2023-01-05T17:55:14.624Z,7.20
2023-01-05T17:57:45.664Z,6.40
2023-01-05T18:00:19.542Z,7.50
2023-01-05T18:02:53.293Z,9.40
2023-01-05T18:05:24.199Z,7.90
2023-01-05T18:07:55.050Z,8.30
2023-01-05T18:10:28.197Z,6.80
2023-01-05T18:12:59.906Z,10.00
2023-01-05T18:15:30.727Z,8.70
2023-01-05T18:18:01.968Z,7.30
2023-01-05T18:20:32.602Z,8.30
2023-01-05T18:23:03.226Z,7.80
2023-01-05T18:25:34.149Z,7.10
2023-01-05T18:28:04.978Z,7.50
2023-01-05T18:30:36.303Z,7.10
2023-01-05T18:33:07.092Z,6.70
2023-01-05T18:35:43.406Z,11.70
2023-01-05T18:38:14.517Z,9.30
2023-01-05T18:40:49.939Z,7.10
2023-01-05T18:43:21.578Z,8.50
2023-01-05T18:45:56.798Z,8.10
2023-01-05T18:48:28.073Z,8.40
2023-01-05T18:50:58.633Z,7.70
2023-01-05T18:53:29.348Z,6.80
2023-01-05T18:56:00.191Z,6.20
2023-01-05T18:58:31.480Z,8.20
2023-01-05T19:01:02.055Z,7.50
2023-01-05T19:03:32.834Z,9.20
2023-01-05T19:06:07.020Z,6.70
2023-01-05T19:08:37.890Z,6.80
2023-01-05T19:11:15.632Z,8.30
2023-01-05T19:13:47.449Z,7.50
2023-01-05T19:16:18.471Z,10.00
2023-01-05T19:18:51.422Z,8.50
2023-01-05T19:21:22.462Z,9.30
2023-01-05T19:23:57.493Z,8.40
2023-01-05T19:26:31.612Z,6.80
2023-01-05T19:29:03.244Z,7.00
2023-01-05T19:31:34.584Z,8.60
2023-01-05T19:34:06.246Z,6.30
2023-01-05T19:36:37.107Z,7.00
2023-01-05T19:39:09.817Z,5.90
2023-01-05T19:41:41.104Z,8.60
2023-01-05T19:44:13.528Z,6.50
2023-01-05T19:46:44.510Z,5.30
2023-01-05T19:49:17.045Z,7.20
2023-01-05T19:51:47.841Z,7.10
2023-01-05T19:54:19.407Z,6.50
2023-01-05T19:56:49.900Z,9.50
2023-01-05T19:59:23.051Z,8.60
2023-01-05T20:01:54.979Z,6.30
2023-01-05T20:04:26.013Z,8.60
2023-01-05T20:06:56.506Z,6.90
2023-01-05T20:09:27.265Z,5.90
2023-01-05T20:12:12.685Z,4.70
2023-01-05T20:14:44.891Z,5.90
2023-01-05T20:17:15.799Z,6.80
2023-01-05T20:19:46.557Z,6.30
2023-01-05T20:22:17.252Z,9.60
2023-01-05T20:24:47.995Z,5.60
2023-01-05T20:27:19.129Z,6.90
2023-01-05T20:29:49.957Z,7.40
2023-01-05T20:32:21.631Z,5.60
2023-01-05T20:34:55.023Z,7.30
2023-01-05T20:37:25.494Z,6.70
2023-01-05T20:39:57.984Z,11.60
2023-01-05T20:42:28.805Z,6.20
2023-01-05T20:45:01.757Z,8.60
2023-01-05T20:47:43.301Z,12.30
2023-01-05T20:50:17.899Z,11.30
2023-01-05T20:52:48.390Z,11.80
2023-01-05T20:55:19.542Z,14.20
2023-01-05T20:57:51.024Z,11.40
2023-01-05T21:00:21.837Z,11.30
2023-01-05T21:02:52.384Z,12.50
2023-01-05T21:05:23.026Z,9.80
2023-01-05T21:07:53.596Z,9.70
2023-01-05T21:10:24.291Z,13.10
2023-01-05T21:12:54.927Z,8.80
2023-01-05T21:15:46.014Z,10.20
2023-01-05T21:18:16.658Z,7.10
2023-01-05T21:20:47.425Z,7.40
2023-01-05T21:23:18.459Z,7.70
2023-01-05T21:26:06.641Z,7.10
2023-01-05T21:28:39.192Z,13.60
2023-01-05T21:31:10.944Z,9.00
2023-01-05T21:33:41.700Z,7.20
2023-01-05T21:36:15.073Z,12.20
2023-01-05T21:41:52.341Z,9.20
2023-01-05T21:44:24.283Z,7.80
2023-01-05T21:46:55.332Z,6.80
2023-01-05T21:49:26.115Z,8.50
2023-01-05T21:52:10.766Z,8.50
2023-01-05T21:54:59.073Z,9.70
2023-01-05T21:57:29.964Z,6.30
2023-01-05T22:00:00.577Z,6.40
2023-01-05T22:02:31.419Z,6.90
2023-01-05T22:05:02.019Z,6.60
2023-01-05T22:07:32.725Z,8.80
2023-01-05T22:10:03.244Z,6.60
2023-01-05T22:12:36.157Z,5.90
2023-01-05T22:15:07.641Z,8.40
2023-01-05T22:17:38.498Z,6.20
2023-01-05T22:20:09.987Z,9.60
2023-01-05T22:22:40.729Z,6.90
2023-01-05T22:25:11.670Z,10.30
2023-01-05T22:27:42.557Z,6.30
2023-01-05T22:30:14.045Z,5.90
2023-01-05T22:32:44.734Z,6.40
2023-01-05T22:35:15.411Z,8.20
2023-01-05T22:37:46.549Z,8.50
2023-01-05T22:40:17.257Z,6.20
2023-01-05T22:42:48.053Z,5.40
2023-01-05T22:45:18.754Z,6.10
2023-01-05T22:47:49.479Z,6.60
2023-01-05T22:50:20.124Z,7.00
2023-01-05T22:52:51.113Z,6.20
2023-01-05T22:55:21.638Z,6.90
2023-01-05T22:57:52.429Z,7.30
2023-01-05T23:00:23.084Z,6.10
2023-01-05T23:02:54.872Z,8.60
2023-01-05T23:05:25.443Z,6.70
2023-01-05T23:07:56.472Z,7.40
2023-01-05T23:10:27.895Z,7.30
2023-01-05T23:12:58.861Z,7.00
2023-01-05T23:15:29.356Z,6.30
2023-01-05T23:18:00.483Z,7.80
2023-01-05T23:20:31.177Z,6.60
2023-01-05T23:23:13.799Z,5.80
2023-01-05T23:25:46.075Z,7.20
2023-01-05T23:28:18.333Z,7.50
2023-01-05T23:30:50.071Z,9.00
2023-01-05T23:33:21.736Z,6.10
2023-01-05T23:35:53.115Z,8.00
2023-01-05T23:38:24.355Z,7.70
2023-01-05T23:40:55.371Z,6.50
2023-01-05T23:43:27.288Z,7.30
2023-01-05T23:46:02.074Z,8.20
2023-01-05T23:48:34.728Z,9.40
2023-01-05T23:51:06.185Z,9.80
2023-01-05T23:53:37.467Z,8.90
2023-01-05T23:56:09.076Z,9.60
2023-01-05T23:58:40.330Z,11.10
